Terminal Aerodrome Forecast
Issued by NWS Bismarck, ND

Home | Current Version | Previous Version | Graphics & Text | Print | Product List | Glossary On
Versions: 1 2 3 4 5 6 7 8 9 10 11 12 13 14 15 16 17
000
FTUS43 KBIS 022333
TAFBIS
TAF
KBIS 022333Z 0300/0324 30017G24KT P6SM BKN140
     FM030100 36005KT P6SM SCT120 BKN150
     FM030800 34013G18KT P6SM BKN110
     FM031600 33015G20KT P6SM SCT150=

USA.gov is the U.S. government's official web portal to all federal, state and local government web resources and services.